Santa Fe Springs, California
Current Conditions -  °F | °C
As of 2:53 PM on Friday 31 Oct 2014 (Local Time) from KFUL Reporting Station
Overcast Overcast  
Wind Chill: 71°   Ceiling: 4700
Heat Index: 71°   Visibility: 10mi
Dew Point: 53°   Wind: 6mph
Humidity: 53%   Direction: 210°SSW
Pressure: 29.87"   Gusts: NA
Location:  33.95°N, 118.08°W
Report Text: KFUL 312153Z 21005KT 10SM OVC047 22/12 A2987 RMK AO2 SLP114 T02170117
Loading
Personal Weather Stations






























Interactive Weather Map
Tropical Storm Tracking
New forecast layout! Learn more

10-Day Weather Forecast

Advertisements
Track Severe Weather on mobile